createdAt,value
2019-04-14T00:02:20.757Z,100916.16
2019-04-14T00:04:53.495Z,100911.63
2019-04-14T00:07:25.403Z,100908.94
2019-04-14T00:10:07.067Z,100906.75
2019-04-14T00:12:38.408Z,100898.38
2019-04-14T00:15:23.498Z,100905.44
2019-04-14T00:17:46.464Z,100903.38
2019-04-14T00:20:18.500Z,100906.00
2019-04-14T00:22:51.117Z,100905.84
2019-04-14T00:25:22.415Z,100905.28
2019-04-14T00:27:54.374Z,100904.91
2019-04-14T00:30:27.345Z,100904.72
2019-04-14T00:33:01.932Z,100904.97
2019-04-14T00:35:38.561Z,100901.50
2019-04-14T00:38:26.017Z,100896.47
2019-04-14T00:41:05.298Z,100896.84
2019-04-14T00:43:59.138Z,100902.41
2019-04-14T00:46:49.726Z,100913.91
2019-04-14T00:49:26.887Z,100902.35
2019-04-14T00:51:59.404Z,100904.10
2019-04-14T00:54:33.050Z,100893.56
2019-04-14T00:57:05.155Z,100890.36
2019-04-14T00:59:36.296Z,100889.80
2019-04-14T01:02:12.895Z,100893.70
2019-04-14T01:04:44.781Z,100894.28
2019-04-14T01:07:15.662Z,100895.69
2019-04-14T01:09:48.934Z,100884.66
2019-04-14T01:12:23.433Z,100887.28
2019-04-14T01:15:00.618Z,100884.61
2019-04-14T01:17:33.077Z,100886.20
2019-04-14T01:20:03.964Z,100891.38
2019-04-14T01:22:34.453Z,100887.47
2019-04-14T01:25:06.302Z,100885.50
2019-04-14T01:27:37.042Z,100886.19
2019-04-14T01:30:08.855Z,100890.30
2019-04-14T01:32:39.831Z,100889.64
2019-04-14T01:35:10.286Z,100890.70
2019-04-14T01:37:41.889Z,100892.23
2019-04-14T01:40:12.497Z,100896.05
2019-04-14T01:42:44.196Z,100893.80
2019-04-14T01:45:18.847Z,100903.89
2019-04-14T01:47:49.340Z,100895.52
2019-04-14T01:50:21.754Z,100900.17
2019-04-14T01:52:58.983Z,100899.64
2019-04-14T01:56:12.298Z,100899.78
2019-04-14T01:58:44.757Z,100901.41
2019-04-14T02:01:19.548Z,100904.08
2019-04-14T02:03:50.190Z,100901.14
2019-04-14T02:06:22.241Z,100908.35
2019-04-14T02:08:53.069Z,100910.72
2019-04-14T02:11:24.689Z,100914.47
2019-04-14T02:13:55.380Z,100917.67
2019-04-14T02:16:35.802Z,100912.16
2019-04-14T02:19:02.443Z,100914.69
2019-04-14T02:21:34.451Z,100911.67
2019-04-14T02:24:05.085Z,100917.47
2019-04-14T02:26:35.496Z,100911.41
2019-04-14T02:29:06.318Z,100910.27
2019-04-14T02:32:01.844Z,100915.39
2019-04-14T02:34:42.153Z,100910.63
2019-04-14T02:37:12.311Z,100904.72
2019-04-14T02:39:46.611Z,100904.70
2019-04-14T02:44:43.765Z,100907.62
2019-04-14T02:47:38.542Z,100910.48
2019-04-14T02:49:51.202Z,100910.28
2019-04-14T02:52:30.151Z,100907.05
2019-04-14T02:54:59.654Z,100908.73
2019-04-14T02:57:43.433Z,100907.14
2019-04-14T02:59:58.807Z,100901.65
2019-04-14T03:02:40.948Z,100901.72
2019-04-14T03:07:44.260Z,100905.50
2019-04-14T03:10:01.133Z,100897.16
2019-04-14T03:12:38.599Z,100901.87
2019-04-14T03:15:07.272Z,100899.23
2019-04-14T03:18:26.442Z,100897.56
2019-04-14T03:20:59.010Z,100903.84
2019-04-14T03:23:40.733Z,100904.50
2019-04-14T03:26:15.633Z,100905.36
2019-04-14T03:28:51.100Z,100908.03
2019-04-14T03:31:51.786Z,100910.94
2019-04-14T03:39:05.954Z,100911.48
2019-04-14T03:41:41.292Z,100914.08
2019-04-14T03:44:11.895Z,100913.72
2019-04-14T03:46:50.683Z,100907.56
2019-04-14T03:49:17.806Z,100907.44
2019-04-14T03:51:50.312Z,100909.82
2019-04-14T03:54:17.075Z,100912.77
2019-04-14T03:56:53.606Z,100915.69
2019-04-14T03:59:24.564Z,100907.53
2019-04-14T04:01:54.988Z,100903.08
2019-04-14T04:04:25.327Z,100903.77
2019-04-14T04:06:55.832Z,100907.09
2019-04-14T04:09:32.503Z,100908.61
2019-04-14T04:12:05.422Z,100908.71
2019-04-14T04:14:36.020Z,100902.82
2019-04-14T04:17:25.742Z,100904.75
2019-04-14T04:20:18.145Z,100904.48
2019-04-14T04:23:14.237Z,100910.92
2019-04-14T04:26:06.736Z,100911.63
2019-04-14T04:28:56.281Z,100907.52
2019-04-14T04:31:44.582Z,100909.13
2019-04-14T04:34:25.130Z,100907.87
2019-04-14T04:37:15.301Z,100912.08
2019-04-14T04:39:47.576Z,100915.88
2019-04-14T04:42:18.109Z,100915.02
2019-04-14T04:44:48.918Z,100912.17
2019-04-14T04:47:21.170Z,100921.19
2019-04-14T04:49:53.361Z,100920.30
2019-04-14T04:52:25.816Z,100920.36
2019-04-14T04:54:56.331Z,100916.84
2019-04-14T04:57:26.773Z,100913.95
2019-04-14T04:59:59.049Z,100915.62
2019-04-14T05:02:30.932Z,100921.22
2019-04-14T05:05:01.823Z,100920.75
2019-04-14T05:07:33.703Z,100918.85
2019-04-14T05:10:24.219Z,100924.17
2019-04-14T05:13:18.388Z,100925.58
2019-04-14T05:15:53.187Z,100930.92
2019-04-14T05:18:25.210Z,100926.59
2019-04-14T05:20:57.433Z,100935.81
2019-04-14T05:23:28.409Z,100933.05
2019-04-14T05:26:00.448Z,100934.05
2019-04-14T05:28:37.484Z,100935.31
2019-04-14T05:31:08.103Z,100938.20
2019-04-14T05:33:54.062Z,100941.62
2019-04-14T05:36:21.607Z,100944.56
2019-04-14T05:38:52.086Z,100948.01
2019-04-14T05:41:24.451Z,100943.45
2019-04-14T05:43:58.894Z,100944.25
2019-04-14T05:46:27.402Z,100944.59
2019-04-14T05:48:58.060Z,100942.45
2019-04-14T05:51:28.796Z,100945.19
2019-04-14T05:53:59.497Z,100951.03
2019-04-14T05:56:37.550Z,100947.82
2019-04-14T05:59:08.886Z,100948.10
2019-04-14T06:01:42.036Z,100951.42
2019-04-14T06:04:13.595Z,100949.59
2019-04-14T06:06:44.667Z,100953.61
2019-04-14T06:09:20.357Z,100957.41
2019-04-14T06:11:51.057Z,100950.61
2019-04-14T06:14:21.794Z,100955.00
2019-04-14T06:16:52.670Z,100960.80
2019-04-14T06:19:37.057Z,100957.31
2019-04-14T06:22:05.852Z,100958.16
2019-04-14T06:24:36.399Z,100952.09
2019-04-14T06:27:08.782Z,100954.55
2019-04-14T06:29:41.359Z,100963.21
2019-04-14T06:32:33.109Z,100957.83
2019-04-14T06:35:28.456Z,100958.54
2019-04-14T06:38:01.921Z,100963.63
2019-04-14T06:40:54.659Z,100961.53
2019-04-14T06:43:25.152Z,100967.45
2019-04-14T06:45:55.699Z,100967.68
2019-04-14T06:48:26.569Z,100965.60
2019-04-14T06:50:57.194Z,100959.94
2019-04-14T06:53:32.636Z,100966.16
2019-04-14T06:56:06.472Z,100969.28
2019-04-14T06:58:37.171Z,100973.00
2019-04-14T07:01:08.000Z,100972.41
2019-04-14T07:03:40.948Z,100969.56
2019-04-14T07:06:11.775Z,100968.30
2019-04-14T07:08:44.139Z,100974.82
2019-04-14T07:11:14.953Z,100979.34
2019-04-14T07:13:49.830Z,100973.45
2019-04-14T07:16:24.282Z,100983.63
2019-04-14T07:19:04.033Z,100972.92
2019-04-14T07:21:35.840Z,100983.26
2019-04-14T07:24:06.299Z,100982.02
2019-04-14T07:26:37.086Z,100984.08
2019-04-14T07:29:07.664Z,100975.12
2019-04-14T07:31:58.840Z,100981.34
2019-04-14T07:34:55.186Z,100982.91
2019-04-14T07:37:41.361Z,100986.63
2019-04-14T07:40:29.968Z,100987.09
2019-04-14T07:43:15.019Z,100989.70
2019-04-14T07:45:58.436Z,100995.84
2019-04-14T07:48:36.743Z,100994.79
2019-04-14T07:51:33.977Z,100990.58
2019-04-14T07:54:45.196Z,100993.08
2019-04-14T07:57:50.407Z,100994.72
2019-04-14T08:00:43.011Z,101004.77
2019-04-14T08:03:22.732Z,101005.35
2019-04-14T08:05:53.536Z,101015.11
2019-04-14T08:08:24.903Z,101013.98
2019-04-14T08:10:55.544Z,101012.08
2019-04-14T08:13:27.605Z,101017.95
2019-04-14T08:16:00.764Z,101012.47
2019-04-14T08:18:31.327Z,101014.30
2019-04-14T08:21:02.967Z,101017.81
2019-04-14T08:23:34.461Z,101012.95
2019-04-14T08:26:05.996Z,101022.41
2019-04-14T08:28:36.884Z,101016.41
2019-04-14T08:31:07.381Z,101017.30
2019-04-14T08:33:38.833Z,101024.33
2019-04-14T08:36:10.232Z,101021.44
2019-04-14T08:38:40.819Z,101016.61
2019-04-14T08:41:12.847Z,101022.19
2019-04-14T08:43:55.284Z,101024.75
2019-04-14T08:46:47.725Z,101032.64
2019-04-14T08:49:40.262Z,101021.59
2019-04-14T08:52:32.829Z,101026.89
2019-04-14T08:55:12.481Z,101026.77
2019-04-14T08:58:10.707Z,101024.02
2019-04-14T09:01:18.707Z,101027.72
2019-04-14T09:04:12.172Z,101027.97
2019-04-14T09:06:53.502Z,101024.05
2019-04-14T09:09:28.845Z,101020.00
2019-04-14T09:12:14.759Z,101022.84
2019-04-14T09:14:35.306Z,101015.19
2019-04-14T09:17:11.631Z,101024.40
2019-04-14T09:19:42.759Z,101028.51
2019-04-14T09:22:13.631Z,101035.56
2019-04-14T09:24:49.894Z,101040.23
2019-04-14T09:27:22.113Z,101035.70
2019-04-14T09:29:57.682Z,101033.81
2019-04-14T09:32:29.794Z,101035.28
2019-04-14T09:35:04.162Z,101034.96
2019-04-14T09:37:37.105Z,101036.52
2019-04-14T09:40:09.788Z,101034.91
2019-04-14T09:42:43.431Z,101041.22
2019-04-14T09:45:16.381Z,101045.48
2019-04-14T09:47:48.530Z,101040.48
2019-04-14T09:50:19.036Z,101045.75
2019-04-14T09:52:49.437Z,101042.20
2019-04-14T09:55:20.226Z,101045.53
2019-04-14T09:57:51.235Z,101040.48
2019-04-14T10:00:34.362Z,101035.52
2019-04-14T10:03:09.411Z,101042.75
2019-04-14T10:05:49.739Z,101044.85
2019-04-14T10:08:19.781Z,101042.42
2019-04-14T10:10:50.333Z,101048.14
2019-04-14T10:13:20.876Z,101043.94
2019-04-14T10:16:03.695Z,101049.78
2019-04-14T10:18:37.161Z,101051.53
2019-04-14T10:21:17.381Z,101051.09
2019-04-14T10:23:46.170Z,101046.63
2019-04-14T10:26:20.513Z,101048.10
2019-04-14T10:28:56.303Z,101052.27
2019-04-14T10:31:27.683Z,101059.73
2019-04-14T10:33:58.179Z,101067.30
2019-04-14T10:36:29.274Z,101067.79
2019-04-14T10:39:00.979Z,101057.86
2019-04-14T10:41:32.872Z,101058.11
2019-04-14T10:44:03.935Z,101059.84
2019-04-14T10:46:34.738Z,101060.87
2019-04-14T10:49:05.849Z,101056.30
2019-04-14T10:52:00.429Z,101058.62
2019-04-14T10:54:30.888Z,101053.47
2019-04-14T10:57:01.823Z,101048.75
2019-04-14T10:59:34.679Z,101052.31
2019-04-14T11:02:13.937Z,101048.45
2019-04-14T11:04:50.002Z,101051.45
2019-04-14T11:07:26.424Z,101043.20
2019-04-14T11:09:56.961Z,101041.50
2019-04-14T11:12:27.599Z,101051.43
2019-04-14T11:14:59.631Z,101048.25
2019-04-14T11:17:30.044Z,101052.11
2019-04-14T11:20:00.562Z,101049.08
2019-04-14T11:22:31.025Z,101046.73
2019-04-14T11:25:01.739Z,101040.69
2019-04-14T11:27:32.276Z,101047.47
2019-04-14T11:30:03.133Z,101050.01
2019-04-14T11:32:53.705Z,101044.36
2019-04-14T11:35:42.070Z,101048.88
2019-04-14T11:38:37.672Z,101048.18
2019-04-14T11:41:18.130Z,101064.58
2019-04-14T11:43:55.230Z,101066.34
2019-04-14T11:46:25.948Z,101067.77
2019-04-14T11:49:06.992Z,101069.77
2019-04-14T11:51:39.357Z,101083.91
2019-04-14T11:54:09.828Z,101074.42
2019-04-14T11:56:40.561Z,101082.48
2019-04-14T11:59:11.214Z,101077.95
2019-04-14T12:01:51.313Z,101081.57
2019-04-14T12:04:40.024Z,101080.83
2019-04-14T12:07:16.833Z,101079.28
2019-04-14T12:09:57.534Z,101080.63
2019-04-14T12:12:28.198Z,101078.59
2019-04-14T12:14:58.798Z,101075.55
2019-04-14T12:17:29.663Z,101076.31
2019-04-14T12:20:01.730Z,101079.44
2019-04-14T12:22:32.272Z,101076.19
2019-04-14T12:25:04.859Z,101079.22
2019-04-14T12:27:35.683Z,101071.88
2019-04-14T12:30:13.979Z,101072.41
2019-04-14T12:32:45.023Z,101075.91
2019-04-14T12:35:16.265Z,101070.42
2019-04-14T12:37:47.307Z,101068.81
2019-04-14T12:40:21.116Z,101068.50
2019-04-14T12:43:02.803Z,101065.11
2019-04-14T12:45:46.178Z,101059.02
2019-04-14T12:48:48.374Z,101068.70
2019-04-14T12:51:48.322Z,101065.61
2019-04-14T12:54:20.280Z,101061.33
2019-04-14T12:56:51.138Z,101055.11
2019-04-14T12:59:23.433Z,101061.70
2019-04-14T13:02:11.241Z,101067.02
2019-04-14T13:04:41.878Z,101068.05
2019-04-14T13:07:12.395Z,101064.91
2019-04-14T13:09:42.803Z,101068.34
2019-04-14T13:12:13.357Z,101066.39
2019-04-14T13:14:44.195Z,101066.14
2019-04-14T13:17:17.438Z,101072.48
2019-04-14T13:19:47.988Z,101075.07
2019-04-14T13:22:33.249Z,101073.05
2019-04-14T13:24:56.644Z,101076.44
2019-04-14T13:27:27.085Z,101078.38
2019-04-14T13:30:05.676Z,101073.89
2019-04-14T13:32:37.124Z,101073.27
2019-04-14T13:35:08.881Z,101072.73
2019-04-14T13:37:40.457Z,101069.14
2019-04-14T13:40:14.150Z,101063.61
2019-04-14T13:42:44.583Z,101071.36
2019-04-14T13:45:16.117Z,101064.70
2019-04-14T13:47:47.563Z,101061.69
2019-04-14T13:50:18.204Z,101061.44
2019-04-14T13:52:48.631Z,101060.70
2019-04-14T13:55:19.181Z,101062.45
2019-04-14T13:57:49.686Z,101057.13
2019-04-14T14:00:21.616Z,101052.91
2019-04-14T14:02:52.092Z,101055.09
2019-04-14T14:05:24.246Z,101054.36
2019-04-14T14:07:55.915Z,101058.88
2019-04-14T14:10:26.560Z,101062.83
2019-04-14T14:13:06.314Z,101056.86
2019-04-14T14:15:54.962Z,101061.80
2019-04-14T14:18:56.400Z,101063.91
2019-04-14T14:21:39.827Z,101064.06
2019-04-14T14:24:26.069Z,101060.73
2019-04-14T14:26:56.914Z,101061.77
2019-04-14T14:29:29.634Z,101060.20
2019-04-14T14:32:01.610Z,101063.04
2019-04-14T14:34:40.385Z,101055.28
2019-04-14T14:37:11.136Z,101048.50
2019-04-14T14:39:42.713Z,101052.86
2019-04-14T14:42:13.260Z,101056.45
2019-04-14T14:44:48.973Z,101053.80
2019-04-14T14:47:22.399Z,101052.03
2019-04-14T14:50:26.839Z,101045.88
2019-04-14T14:53:11.419Z,101054.16
2019-04-14T14:55:36.450Z,101046.58
2019-04-14T14:58:06.985Z,101050.16
2019-04-14T15:00:37.825Z,101048.61
2019-04-14T15:03:08.880Z,101045.02
2019-04-14T15:05:39.463Z,101050.08
2019-04-14T15:08:10.549Z,101050.53
2019-04-14T15:10:42.463Z,101045.41
2019-04-14T15:13:14.672Z,101050.29
2019-04-14T15:15:48.875Z,101049.98
2019-04-14T15:18:30.415Z,101050.19
2019-04-14T15:21:01.729Z,101047.92
2019-04-14T15:23:32.673Z,101049.70
2019-04-14T15:26:05.042Z,101060.37
2019-04-14T15:28:37.595Z,101057.67
2019-04-14T15:31:10.111Z,101053.31
2019-04-14T15:33:47.791Z,101059.38
2019-04-14T15:36:20.898Z,101053.34
2019-04-14T15:38:51.070Z,101053.68
2019-04-14T15:41:22.929Z,101055.09
2019-04-14T15:43:53.582Z,101053.83
2019-04-14T15:46:24.490Z,101049.62
2019-04-14T15:48:58.225Z,101050.67
2019-04-14T15:51:28.958Z,101054.08
2019-04-14T15:53:59.949Z,101059.27
2019-04-14T15:57:05.325Z,101056.09
2019-04-14T16:00:03.985Z,101056.82
2019-04-14T16:02:43.304Z,101054.23
2019-04-14T16:05:32.631Z,101060.09
2019-04-14T16:08:08.272Z,101057.91
2019-04-14T16:10:43.931Z,101059.20
2019-04-14T16:13:33.629Z,101063.80
2019-04-14T16:16:15.498Z,101061.76
2019-04-14T16:18:54.791Z,101061.60
2019-04-14T16:21:26.200Z,101062.08
2019-04-14T16:24:00.128Z,101064.16
2019-04-14T16:26:50.655Z,101063.05
2019-04-14T16:29:31.604Z,101065.08
2019-04-14T16:32:30.082Z,101061.94
2019-04-14T16:35:09.398Z,101071.07
2019-04-14T16:37:39.915Z,101055.62
2019-04-14T16:40:13.206Z,101061.30
2019-04-14T16:42:46.302Z,101060.55
2019-04-14T16:45:16.905Z,101062.91
2019-04-14T16:47:47.457Z,101066.48
2019-04-14T16:50:18.295Z,101066.63
2019-04-14T16:53:00.230Z,101072.00
2019-04-14T16:55:59.816Z,101065.66
2019-04-14T16:58:45.110Z,101063.91
2019-04-14T17:01:22.172Z,101062.39
2019-04-14T17:03:53.497Z,101069.09
2019-04-14T17:06:25.563Z,101070.59
2019-04-14T17:08:56.823Z,101068.86
2019-04-14T17:11:28.256Z,101071.33
2019-04-14T17:14:12.085Z,101071.24
2019-04-14T17:17:20.351Z,101073.34
2019-04-14T17:20:03.330Z,101068.30
2019-04-14T17:23:02.022Z,101081.05
2019-04-14T17:25:45.836Z,101078.69
2019-04-14T17:28:44.639Z,101080.02
2019-04-14T17:31:23.993Z,101087.23
2019-04-14T17:34:13.896Z,101086.42
2019-04-14T17:37:17.886Z,101089.44
2019-04-14T17:39:52.838Z,101090.44
2019-04-14T17:42:43.175Z,101093.73
2019-04-14T17:45:23.403Z,101092.46
2019-04-14T17:48:12.329Z,101094.94
2019-04-14T17:50:53.983Z,101099.94
2019-04-14T17:53:41.522Z,101097.96
2019-04-14T17:56:26.679Z,101098.95
2019-04-14T17:59:33.594Z,101098.41
2019-04-14T18:02:21.685Z,101100.03
2019-04-14T18:05:05.285Z,101106.81
2019-04-14T18:07:53.244Z,101112.38
2019-04-14T18:10:45.652Z,101113.57
2019-04-14T18:13:41.296Z,101117.98
2019-04-14T18:16:30.826Z,101123.25
2019-04-14T18:19:27.486Z,101127.72
2019-04-14T18:21:58.032Z,101130.20
2019-04-14T18:24:41.622Z,101131.34
2019-04-14T18:27:04.235Z,101137.45
2019-04-14T18:29:46.509Z,101137.17
2019-04-14T18:32:40.770Z,101141.89
2019-04-14T18:35:35.314Z,101146.05
2019-04-14T18:38:27.650Z,101147.62
2019-04-14T18:41:26.183Z,101152.83
2019-04-14T18:44:28.450Z,101154.37
2019-04-14T18:47:19.185Z,101151.38
2019-04-14T18:50:05.451Z,101159.66
2019-04-14T18:52:51.190Z,101160.55
2019-04-14T18:55:40.320Z,101166.84
2019-04-14T18:58:31.280Z,101167.94
2019-04-14T19:01:14.158Z,101166.05
2019-04-14T19:03:47.386Z,101167.64
2019-04-14T19:06:20.746Z,101172.19
2019-04-14T19:09:02.447Z,101168.91
2019-04-14T19:11:57.155Z,101174.11
2019-04-14T19:14:39.601Z,101170.64
2019-04-14T19:17:34.721Z,101177.02
2019-04-14T19:20:12.510Z,101181.51
2019-04-14T19:22:45.782Z,101180.19
2019-04-14T19:25:34.185Z,101177.06
2019-04-14T19:28:07.967Z,101175.13
2019-04-14T19:30:42.059Z,101178.45
2019-04-14T19:33:18.576Z,101180.25
2019-04-14T19:36:10.731Z,101186.14
2019-04-14T19:38:46.405Z,101187.14
2019-04-14T19:41:40.506Z,101188.41
2019-04-14T19:44:20.744Z,101191.41
2019-04-14T19:46:53.824Z,101192.08
2019-04-14T19:49:27.123Z,101193.05
2019-04-14T19:51:58.655Z,101198.03
2019-04-14T19:54:31.488Z,101193.55
2019-04-14T19:57:06.504Z,101194.18
2019-04-14T19:59:39.118Z,101200.20
2019-04-14T20:02:13.151Z,101197.75
2019-04-14T20:04:47.900Z,101198.12
2019-04-14T20:07:19.003Z,101200.02
2019-04-14T20:09:54.344Z,101198.42
2019-04-14T20:12:28.349Z,101209.80
2019-04-14T20:15:01.968Z,101201.94
2019-04-14T20:18:12.219Z,101211.38
2019-04-14T20:21:23.831Z,101216.41
2019-04-14T20:24:20.166Z,101214.55
2019-04-14T20:27:03.516Z,101221.02
2019-04-14T20:29:38.937Z,101217.96
2019-04-14T20:32:13.424Z,101223.14
2019-04-14T20:34:43.977Z,101219.94
2019-04-14T20:37:16.198Z,101225.70
2019-04-14T20:39:50.883Z,101228.26
2019-04-14T20:42:21.937Z,101220.39
2019-04-14T20:44:52.867Z,101222.31
2019-04-14T20:47:23.478Z,101226.39
2019-04-14T20:49:54.231Z,101227.02
2019-04-14T20:52:24.854Z,101220.25
2019-04-14T20:54:57.626Z,101220.08
2019-04-14T20:57:36.588Z,101223.23
2019-04-14T21:00:09.844Z,101226.63
2019-04-14T21:03:02.398Z,101223.58
2019-04-14T21:05:52.085Z,101222.27
2019-04-14T21:08:45.537Z,101228.41
2019-04-14T21:11:40.470Z,101228.33
2019-04-14T21:14:48.422Z,101231.72
2019-04-14T21:17:30.060Z,101230.14
2019-04-14T21:20:17.566Z,101232.44
2019-04-14T21:23:06.560Z,101233.10
2019-04-14T21:26:00.443Z,101232.07
2019-04-14T21:28:44.007Z,101237.80
2019-04-14T21:31:38.245Z,101235.69
2019-04-14T21:34:22.203Z,101240.45
2019-04-14T21:36:59.044Z,101247.91
2019-04-14T21:40:05.917Z,101247.30
2019-04-14T21:42:46.468Z,101257.83
2019-04-14T21:45:17.630Z,101248.41
2019-04-14T21:47:55.025Z,101252.22
2019-04-14T21:50:27.768Z,101260.56
2019-04-14T21:53:01.402Z,101258.99
2019-04-14T21:55:35.450Z,101250.82
2019-04-14T21:58:40.579Z,101256.17
2019-04-14T22:02:03.269Z,101265.36
2019-04-14T22:04:47.314Z,101267.92
2019-04-14T22:07:26.989Z,101269.45
2019-04-14T22:10:26.945Z,101270.68
2019-04-14T22:12:58.176Z,101272.41
2019-04-14T22:15:32.197Z,101269.91
2019-04-14T22:18:08.850Z,101272.13
2019-04-14T22:20:39.980Z,101273.41
2019-04-14T22:23:12.103Z,101275.25
2019-04-14T22:25:42.698Z,101274.22
2019-04-14T22:28:16.908Z,101280.47
2019-04-14T22:30:47.520Z,101280.05
2019-04-14T22:33:18.945Z,101290.91
2019-04-14T22:35:52.705Z,101283.89
2019-04-14T22:38:28.770Z,101291.31
2019-04-14T22:40:59.940Z,101291.47
2019-04-14T22:43:30.415Z,101290.03
2019-04-14T22:46:01.123Z,101289.77
2019-04-14T22:48:36.149Z,101290.33
2019-04-14T22:51:10.967Z,101302.55
2019-04-14T22:53:43.023Z,101293.91
2019-04-14T22:56:16.569Z,101295.80
2019-04-14T22:58:51.658Z,101296.42
2019-04-14T23:01:31.031Z,101299.77
2019-04-14T23:04:30.572Z,101292.50
2019-04-14T23:07:20.212Z,101297.80
2019-04-14T23:09:55.867Z,101300.25
2019-04-14T23:12:54.188Z,101297.19
2019-04-14T23:15:33.515Z,101299.67
2019-04-14T23:18:19.872Z,101303.30
2019-04-14T23:21:08.907Z,101302.55
2019-04-14T23:23:47.806Z,101297.49
2019-04-14T23:26:18.744Z,101296.45
2019-04-14T23:28:52.331Z,101299.68
2019-04-14T23:31:22.966Z,101297.72
2019-04-14T23:33:55.109Z,101300.04
2019-04-14T23:36:25.583Z,101298.58
2019-04-14T23:38:56.392Z,101305.05
2019-04-14T23:41:26.915Z,101303.14
2019-04-14T23:44:00.402Z,101307.08
2019-04-14T23:46:30.960Z,101309.68
2019-04-14T23:49:04.033Z,101307.80
2019-04-14T23:51:34.454Z,101306.53
2019-04-14T23:54:05.093Z,101306.11
2019-04-14T23:56:35.625Z,101308.98
2019-04-14T23:59:07.300Z,101313.20
